sensor_id;sensor_type;location;lat;lon;timestamp;P1;durP1;ratioP1;P2;durP2;ratioP2
9970;SDS011;5026;51.494;11.974;2023-06-22T00:02:07;16.73;;;9.60;;
9970;SDS011;5026;51.494;11.974;2023-06-22T00:04:34;11.85;;;10.65;;
9970;SDS011;5026;51.494;11.974;2023-06-22T00:07:02;12.32;;;10.32;;
9970;SDS011;5026;51.494;11.974;2023-06-22T00:09:30;14.18;;;9.82;;
9970;SDS011;5026;51.494;11.974;2023-06-22T00:11:57;11.05;;;9.70;;
9970;SDS011;5026;51.494;11.974;2023-06-22T00:14:24;13.50;;;9.70;;
9970;SDS011;5026;51.494;11.974;2023-06-22T00:16:52;11.27;;;10.05;;
9970;SDS011;5026;51.494;11.974;2023-06-22T00:19:24;11.05;;;9.57;;
9970;SDS011;5026;51.494;11.974;2023-06-22T00:21:51;12.45;;;9.82;;
9970;SDS011;5026;51.494;11.974;2023-06-22T00:24:20;10.45;;;9.38;;
9970;SDS011;5026;51.494;11.974;2023-06-22T00:26:47;11.38;;;10.18;;
9970;SDS011;5026;51.494;11.974;2023-06-22T00:29:14;11.48;;;10.27;;
9970;SDS011;5026;51.494;11.974;2023-06-22T00:31:43;12.57;;;10.23;;
9970;SDS011;5026;51.494;11.974;2023-06-22T00:34:10;14.75;;;10.68;;
9970;SDS011;5026;51.494;11.974;2023-06-22T00:36:37;11.85;;;10.45;;
9970;SDS011;5026;51.494;11.974;2023-06-22T00:39:05;11.82;;;10.60;;
9970;SDS011;5026;51.494;11.974;2023-06-22T00:41:35;11.73;;;10.52;;
9970;SDS011;5026;51.494;11.974;2023-06-22T00:44:02;13.27;;;11.10;;
9970;SDS011;5026;51.494;11.974;2023-06-22T00:46:29;11.43;;;10.15;;
9970;SDS011;5026;51.494;11.974;2023-06-22T00:48:56;11.85;;;10.20;;
9970;SDS011;5026;51.494;11.974;2023-06-22T00:51:23;11.48;;;10.38;;
9970;SDS011;5026;51.494;11.974;2023-06-22T00:53:51;12.50;;;10.93;;
9970;SDS011;5026;51.494;11.974;2023-06-22T00:56:18;14.93;;;11.48;;
9970;SDS011;5026;51.494;11.974;2023-06-22T00:58:50;12.93;;;10.93;;
9970;SDS011;5026;51.494;11.974;2023-06-22T01:01:19;12.18;;;10.75;;
9970;SDS011;5026;51.494;11.974;2023-06-22T01:03:48;13.57;;;10.80;;
9970;SDS011;5026;51.494;11.974;2023-06-22T01:06:19;12.15;;;10.68;;
9970;SDS011;5026;51.494;11.974;2023-06-22T01:08:54;15.57;;;11.73;;
9970;SDS011;5026;51.494;11.974;2023-06-22T01:11:31;12.93;;;11.43;;
9970;SDS011;5026;51.494;11.974;2023-06-22T01:14:06;13.55;;;11.25;;
9970;SDS011;5026;51.494;11.974;2023-06-22T01:16:40;14.10;;;11.48;;
9970;SDS011;5026;51.494;11.974;2023-06-22T01:19:14;12.82;;;11.18;;
9970;SDS011;5026;51.494;11.974;2023-06-22T01:22:02;12.15;;;10.77;;
9970;SDS011;5026;51.494;11.974;2023-06-22T01:24:32;14.55;;;11.38;;
9970;SDS011;5026;51.494;11.974;2023-06-22T01:27:09;14.27;;;12.10;;
9970;SDS011;5026;51.494;11.974;2023-06-22T01:29:52;13.95;;;12.40;;
9970;SDS011;5026;51.494;11.974;2023-06-22T01:32:30;14.07;;;12.23;;
9970;SDS011;5026;51.494;11.974;2023-06-22T01:34:59;14.27;;;12.75;;
9970;SDS011;5026;51.494;11.974;2023-06-22T01:37:27;14.02;;;12.52;;
9970;SDS011;5026;51.494;11.974;2023-06-22T01:39:59;15.18;;;12.23;;
9970;SDS011;5026;51.494;11.974;2023-06-22T01:42:29;15.00;;;12.73;;
9970;SDS011;5026;51.494;11.974;2023-06-22T01:44:58;13.80;;;12.30;;
9970;SDS011;5026;51.494;11.974;2023-06-22T01:47:26;14.23;;;12.50;;
9970;SDS011;5026;51.494;11.974;2023-06-22T01:49:53;13.82;;;12.20;;
9970;SDS011;5026;51.494;11.974;2023-06-22T01:52:21;14.38;;;12.23;;
9970;SDS011;5026;51.494;11.974;2023-06-22T01:54:48;13.95;;;12.20;;
9970;SDS011;5026;51.494;11.974;2023-06-22T01:57:15;18.17;;;12.52;;
9970;SDS011;5026;51.494;11.974;2023-06-22T01:59:48;18.13;;;13.40;;
9970;SDS011;5026;51.494;11.974;2023-06-22T02:02:20;17.75;;;14.77;;
9970;SDS011;5026;51.494;11.974;2023-06-22T02:04:54;16.75;;;13.60;;
9970;SDS011;5026;51.494;11.974;2023-06-22T02:07:26;17.85;;;14.82;;
9970;SDS011;5026;51.494;11.974;2023-06-22T02:09:58;16.08;;;14.05;;
9970;SDS011;5026;51.494;11.974;2023-06-22T02:12:26;17.30;;;13.38;;
9970;SDS011;5026;51.494;11.974;2023-06-22T02:14:55;18.23;;;14.20;;
9970;SDS011;5026;51.494;11.974;2023-06-22T02:17:27;16.63;;;14.73;;
9970;SDS011;5026;51.494;11.974;2023-06-22T02:19:58;18.80;;;14.88;;
9970;SDS011;5026;51.494;11.974;2023-06-22T02:22:25;16.80;;;14.02;;
9970;SDS011;5026;51.494;11.974;2023-06-22T02:24:52;16.73;;;14.43;;
9970;SDS011;5026;51.494;11.974;2023-06-22T02:27:19;17.55;;;14.77;;
9970;SDS011;5026;51.494;11.974;2023-06-22T02:29:46;19.00;;;15.70;;
9970;SDS011;5026;51.494;11.974;2023-06-22T02:32:13;19.27;;;15.85;;
9970;SDS011;5026;51.494;11.974;2023-06-22T02:34:43;21.60;;;16.85;;
9970;SDS011;5026;51.494;11.974;2023-06-22T02:37:12;19.08;;;16.08;;
9970;SDS011;5026;51.494;11.974;2023-06-22T02:39:40;22.15;;;16.58;;
9970;SDS011;5026;51.494;11.974;2023-06-22T02:42:07;21.98;;;17.13;;
9970;SDS011;5026;51.494;11.974;2023-06-22T02:44:35;25.05;;;18.92;;
9970;SDS011;5026;51.494;11.974;2023-06-22T02:47:03;23.80;;;17.70;;
9970;SDS011;5026;51.494;11.974;2023-06-22T02:49:30;24.08;;;18.20;;
9970;SDS011;5026;51.494;11.974;2023-06-22T02:51:58;25.13;;;19.30;;
9970;SDS011;5026;51.494;11.974;2023-06-22T02:54:25;25.75;;;19.33;;
9970;SDS011;5026;51.494;11.974;2023-06-22T02:56:52;26.10;;;20.63;;
9970;SDS011;5026;51.494;11.974;2023-06-22T02:59:19;26.67;;;18.67;;
9970;SDS011;5026;51.494;11.974;2023-06-22T03:01:48;23.80;;;18.77;;
9970;SDS011;5026;51.494;11.974;2023-06-22T03:04:15;24.75;;;18.75;;
9970;SDS011;5026;51.494;11.974;2023-06-22T03:06:42;25.52;;;19.42;;
9970;SDS011;5026;51.494;11.974;2023-06-22T03:09:10;24.38;;;18.02;;
9970;SDS011;5026;51.494;11.974;2023-06-22T03:11:37;27.52;;;19.30;;
9970;SDS011;5026;51.494;11.974;2023-06-22T03:14:04;21.67;;;17.73;;
9970;SDS011;5026;51.494;11.974;2023-06-22T03:16:31;27.60;;;19.45;;
9970;SDS011;5026;51.494;11.974;2023-06-22T03:18:59;25.98;;;17.67;;
9970;SDS011;5026;51.494;11.974;2023-06-22T03:21:27;26.08;;;18.70;;
9970;SDS011;5026;51.494;11.974;2023-06-22T03:23:55;22.63;;;17.25;;
9970;SDS011;5026;51.494;11.974;2023-06-22T03:26:23;23.58;;;17.40;;
9970;SDS011;5026;51.494;11.974;2023-06-22T03:28:51;25.15;;;18.20;;
9970;SDS011;5026;51.494;11.974;2023-06-22T03:31:18;25.50;;;16.73;;
9970;SDS011;5026;51.494;11.974;2023-06-22T03:33:46;20.30;;;15.88;;
9970;SDS011;5026;51.494;11.974;2023-06-22T03:36:13;22.98;;;16.65;;
9970;SDS011;5026;51.494;11.974;2023-06-22T03:38:41;18.60;;;15.18;;
9970;SDS011;5026;51.494;11.974;2023-06-22T03:41:08;23.95;;;17.48;;
9970;SDS011;5026;51.494;11.974;2023-06-22T03:43:36;19.48;;;15.90;;
9970;SDS011;5026;51.494;11.974;2023-06-22T03:46:03;22.75;;;15.90;;
9970;SDS011;5026;51.494;11.974;2023-06-22T03:48:30;22.60;;;15.20;;
9970;SDS011;5026;51.494;11.974;2023-06-22T03:50:58;22.42;;;14.85;;
9970;SDS011;5026;51.494;11.974;2023-06-22T03:53:25;23.42;;;15.43;;
9970;SDS011;5026;51.494;11.974;2023-06-22T03:55:52;21.63;;;14.93;;
9970;SDS011;5026;51.494;11.974;2023-06-22T03:58:19;18.38;;;14.07;;
9970;SDS011;5026;51.494;11.974;2023-06-22T04:00:48;22.45;;;14.77;;
9970;SDS011;5026;51.494;11.974;2023-06-22T04:03:17;21.25;;;14.95;;
9970;SDS011;5026;51.494;11.974;2023-06-22T04:05:44;23.45;;;13.90;;
9970;SDS011;5026;51.494;11.974;2023-06-22T04:08:11;18.83;;;13.75;;
9970;SDS011;5026;51.494;11.974;2023-06-22T04:10:39;20.15;;;13.07;;
9970;SDS011;5026;51.494;11.974;2023-06-22T04:13:06;19.00;;;14.13;;
9970;SDS011;5026;51.494;11.974;2023-06-22T04:15:33;18.92;;;14.25;;
9970;SDS011;5026;51.494;11.974;2023-06-22T04:18:01;19.55;;;13.40;;
9970;SDS011;5026;51.494;11.974;2023-06-22T04:20:28;17.75;;;13.48;;
9970;SDS011;5026;51.494;11.974;2023-06-22T04:22:56;21.77;;;12.35;;
9970;SDS011;5026;51.494;11.974;2023-06-22T04:25:23;19.50;;;13.57;;
9970;SDS011;5026;51.494;11.974;2023-06-22T04:27:50;22.35;;;12.65;;
9970;SDS011;5026;51.494;11.974;2023-06-22T04:30:17;18.38;;;11.75;;
9970;SDS011;5026;51.494;11.974;2023-06-22T04:32:44;15.77;;;12.98;;
9970;SDS011;5026;51.494;11.974;2023-06-22T04:35:22;17.15;;;12.27;;
9970;SDS011;5026;51.494;11.974;2023-06-22T04:37:49;15.02;;;11.38;;
9970;SDS011;5026;51.494;11.974;2023-06-22T04:40:20;15.45;;;11.90;;
9970;SDS011;5026;51.494;11.974;2023-06-22T04:42:48;17.83;;;11.75;;
9970;SDS011;5026;51.494;11.974;2023-06-22T04:45:18;19.33;;;12.60;;
9970;SDS011;5026;51.494;11.974;2023-06-22T04:47:46;16.58;;;11.48;;
9970;SDS011;5026;51.494;11.974;2023-06-22T04:50:13;18.25;;;12.25;;
9970;SDS011;5026;51.494;11.974;2023-06-22T04:52:41;16.35;;;12.05;;
9970;SDS011;5026;51.494;11.974;2023-06-22T04:55:08;15.30;;;11.82;;
9970;SDS011;5026;51.494;11.974;2023-06-22T04:57:35;19.20;;;12.13;;
9970;SDS011;5026;51.494;11.974;2023-06-22T05:00:05;17.83;;;11.88;;
9970;SDS011;5026;51.494;11.974;2023-06-22T05:02:42;14.65;;;11.23;;
9970;SDS011;5026;51.494;11.974;2023-06-22T05:05:09;19.20;;;11.93;;
9970;SDS011;5026;51.494;11.974;2023-06-22T05:07:39;16.48;;;12.18;;
9970;SDS011;5026;51.494;11.974;2023-06-22T05:10:09;12.57;;;11.07;;
9970;SDS011;5026;51.494;11.974;2023-06-22T05:12:38;14.23;;;11.38;;
9970;SDS011;5026;51.494;11.974;2023-06-22T05:15:06;21.48;;;12.32;;
9970;SDS011;5026;51.494;11.974;2023-06-22T05:17:33;17.85;;;12.70;;
9970;SDS011;5026;51.494;11.974;2023-06-22T05:20:01;21.70;;;15.18;;
9970;SDS011;5026;51.494;11.974;2023-06-22T05:22:31;19.77;;;14.43;;
9970;SDS011;5026;51.494;11.974;2023-06-22T05:24:59;21.30;;;14.10;;
9970;SDS011;5026;51.494;11.974;2023-06-22T05:34:05;23.20;;;14.50;;
9970;SDS011;5026;51.494;11.974;2023-06-22T05:36:32;21.90;;;13.85;;
9970;SDS011;5026;51.494;11.974;2023-06-22T05:38:59;19.13;;;14.05;;
9970;SDS011;5026;51.494;11.974;2023-06-22T05:41:27;18.80;;;13.30;;
9970;SDS011;5026;51.494;11.974;2023-06-22T05:43:54;15.38;;;13.10;;
9970;SDS011;5026;51.494;11.974;2023-06-22T05:46:22;17.95;;;12.98;;
9970;SDS011;5026;51.494;11.974;2023-06-22T05:48:49;16.23;;;12.40;;
9970;SDS011;5026;51.494;11.974;2023-06-22T05:51:16;17.92;;;13.65;;
9970;SDS011;5026;51.494;11.974;2023-06-22T05:53:42;20.80;;;13.02;;
9970;SDS011;5026;51.494;11.974;2023-06-22T05:56:14;17.63;;;13.38;;
9970;SDS011;5026;51.494;11.974;2023-06-22T05:58:42;15.50;;;11.93;;
9970;SDS011;5026;51.494;11.974;2023-06-22T06:01:09;15.40;;;12.25;;
9970;SDS011;5026;51.494;11.974;2023-06-22T06:03:36;16.92;;;11.93;;
9970;SDS011;5026;51.494;11.974;2023-06-22T06:06:06;14.13;;;11.77;;
9970;SDS011;5026;51.494;11.974;2023-06-22T06:08:32;16.30;;;11.57;;
9970;SDS011;5026;51.494;11.974;2023-06-22T06:10:59;13.57;;;11.50;;
9970;SDS011;5026;51.494;11.974;2023-06-22T06:13:26;12.38;;;11.07;;
9970;SDS011;5026;51.494;11.974;2023-06-22T06:15:54;12.75;;;10.00;;
9970;SDS011;5026;51.494;11.974;2023-06-22T06:18:22;17.75;;;11.85;;
9970;SDS011;5026;51.494;11.974;2023-06-22T06:20:49;11.35;;;10.20;;
9970;SDS011;5026;51.494;11.974;2023-06-22T06:23:15;13.70;;;11.45;;
9970;SDS011;5026;51.494;11.974;2023-06-22T06:25:42;14.80;;;11.40;;
9970;SDS011;5026;51.494;11.974;2023-06-22T06:28:09;11.27;;;10.13;;
9970;SDS011;5026;51.494;11.974;2023-06-22T06:30:36;12.38;;;10.30;;
9970;SDS011;5026;51.494;11.974;2023-06-22T06:33:04;14.77;;;11.00;;
9970;SDS011;5026;51.494;11.974;2023-06-22T06:35:33;14.00;;;11.07;;
9970;SDS011;5026;51.494;11.974;2023-06-22T06:38:01;13.88;;;10.80;;
9970;SDS011;5026;51.494;11.974;2023-06-22T06:40:27;11.30;;;10.00;;
9970;SDS011;5026;51.494;11.974;2023-06-22T06:42:54;12.43;;;9.60;;
9970;SDS011;5026;51.494;11.974;2023-06-22T06:45:21;11.57;;;9.98;;
9970;SDS011;5026;51.494;11.974;2023-06-22T06:47:49;15.02;;;11.30;;
9970;SDS011;5026;51.494;11.974;2023-06-22T06:50:18;12.55;;;10.48;;
9970;SDS011;5026;51.494;11.974;2023-06-22T06:52:45;14.38;;;10.90;;
9970;SDS011;5026;51.494;11.974;2023-06-22T06:55:12;12.20;;;10.88;;
9970;SDS011;5026;51.494;11.974;2023-06-22T06:57:39;11.45;;;9.82;;
9970;SDS011;5026;51.494;11.974;2023-06-22T07:00:07;12.48;;;10.13;;
9970;SDS011;5026;51.494;11.974;2023-06-22T07:02:37;12.48;;;10.30;;
9970;SDS011;5026;51.494;11.974;2023-06-22T07:05:06;11.18;;;9.98;;
9970;SDS011;5026;51.494;11.974;2023-06-22T07:07:34;11.30;;;10.05;;
9970;SDS011;5026;51.494;11.974;2023-06-22T07:10:01;16.55;;;10.35;;
9970;SDS011;5026;51.494;11.974;2023-06-22T07:12:29;13.25;;;10.63;;
9970;SDS011;5026;51.494;11.974;2023-06-22T07:15:00;11.60;;;10.10;;
9970;SDS011;5026;51.494;11.974;2023-06-22T07:17:29;11.55;;;9.85;;
9970;SDS011;5026;51.494;11.974;2023-06-22T07:19:55;11.00;;;9.90;;
9970;SDS011;5026;51.494;11.974;2023-06-22T07:22:22;11.80;;;9.88;;
9970;SDS011;5026;51.494;11.974;2023-06-22T07:24:52;12.38;;;10.90;;
9970;SDS011;5026;51.494;11.974;2023-06-22T07:27:19;11.30;;;10.10;;
9970;SDS011;5026;51.494;11.974;2023-06-22T07:29:46;13.98;;;10.52;;
9970;SDS011;5026;51.494;11.974;2023-06-22T07:32:13;13.00;;;10.02;;
9970;SDS011;5026;51.494;11.974;2023-06-22T07:34:40;13.32;;;9.75;;
9970;SDS011;5026;51.494;11.974;2023-06-22T07:37:07;12.88;;;10.60;;
9970;SDS011;5026;51.494;11.974;2023-06-22T07:39:35;12.23;;;10.23;;
9970;SDS011;5026;51.494;11.974;2023-06-22T07:42:04;14.60;;;10.60;;
9970;SDS011;5026;51.494;11.974;2023-06-22T07:44:31;11.57;;;10.30;;
9970;SDS011;5026;51.494;11.974;2023-06-22T07:46:58;12.30;;;9.57;;
9970;SDS011;5026;51.494;11.974;2023-06-22T07:49:25;11.02;;;9.57;;
9970;SDS011;5026;51.494;11.974;2023-06-22T07:51:54;9.85;;;8.95;;
9970;SDS011;5026;51.494;11.974;2023-06-22T07:54:20;10.38;;;9.23;;
9970;SDS011;5026;51.494;11.974;2023-06-22T07:56:47;11.38;;;9.20;;
9970;SDS011;5026;51.494;11.974;2023-06-22T07:59:15;10.38;;;8.68;;
9970;SDS011;5026;51.494;11.974;2023-06-22T08:01:42;12.75;;;8.70;;
9970;SDS011;5026;51.494;11.974;2023-06-22T08:04:09;10.57;;;9.48;;
9970;SDS011;5026;51.494;11.974;2023-06-22T08:06:36;11.13;;;9.98;;
9970;SDS011;5026;51.494;11.974;2023-06-22T08:09:03;10.73;;;9.63;;
9970;SDS011;5026;51.494;11.974;2023-06-22T08:11:30;10.57;;;9.57;;
9970;SDS011;5026;51.494;11.974;2023-06-22T08:13:56;11.77;;;10.45;;
9970;SDS011;5026;51.494;11.974;2023-06-22T08:16:25;9.48;;;8.35;;
9970;SDS011;5026;51.494;11.974;2023-06-22T08:18:52;13.82;;;9.30;;
9970;SDS011;5026;51.494;11.974;2023-06-22T08:21:20;9.88;;;8.82;;
9970;SDS011;5026;51.494;11.974;2023-06-22T08:23:47;13.10;;;9.52;;
9970;SDS011;5026;51.494;11.974;2023-06-22T08:26:14;10.35;;;9.18;;
9970;SDS011;5026;51.494;11.974;2023-06-22T08:28:41;8.75;;;7.88;;
9970;SDS011;5026;51.494;11.974;2023-06-22T08:31:08;11.15;;;8.45;;
9970;SDS011;5026;51.494;11.974;2023-06-22T08:33:36;10.18;;;9.00;;
9970;SDS011;5026;51.494;11.974;2023-06-22T08:36:03;12.27;;;9.10;;
9970;SDS011;5026;51.494;11.974;2023-06-22T08:38:31;12.38;;;9.57;;
9970;SDS011;5026;51.494;11.974;2023-06-22T08:40:58;10.77;;;9.73;;
9970;SDS011;5026;51.494;11.974;2023-06-22T08:43:25;10.32;;;9.30;;
9970;SDS011;5026;51.494;11.974;2023-06-22T08:45:52;10.27;;;9.32;;
9970;SDS011;5026;51.494;11.974;2023-06-22T08:48:18;10.45;;;9.45;;
9970;SDS011;5026;51.494;11.974;2023-06-22T08:50:46;10.50;;;9.50;;
9970;SDS011;5026;51.494;11.974;2023-06-22T08:53:13;10.82;;;9.00;;
9970;SDS011;5026;51.494;11.974;2023-06-22T08:55:40;10.82;;;8.25;;
9970;SDS011;5026;51.494;11.974;2023-06-22T08:58:07;13.52;;;8.80;;
9970;SDS011;5026;51.494;11.974;2023-06-22T09:00:34;11.68;;;9.93;;
9970;SDS011;5026;51.494;11.974;2023-06-22T09:03:01;10.68;;;9.68;;
9970;SDS011;5026;51.494;11.974;2023-06-22T09:05:28;11.35;;;9.48;;
9970;SDS011;5026;51.494;11.974;2023-06-22T09:07:57;10.40;;;8.75;;
9970;SDS011;5026;51.494;11.974;2023-06-22T09:10:24;10.20;;;8.57;;
9970;SDS011;5026;51.494;11.974;2023-06-22T09:12:51;9.50;;;8.23;;
9970;SDS011;5026;51.494;11.974;2023-06-22T09:15:18;9.35;;;8.45;;
9970;SDS011;5026;51.494;11.974;2023-06-22T09:17:45;9.20;;;8.38;;
9970;SDS011;5026;51.494;11.974;2023-06-22T09:20:12;9.80;;;8.20;;
9970;SDS011;5026;51.494;11.974;2023-06-22T09:22:39;9.85;;;8.85;;
9970;SDS011;5026;51.494;11.974;2023-06-22T09:25:09;10.93;;;8.05;;
9970;SDS011;5026;51.494;11.974;2023-06-22T09:27:36;11.20;;;8.10;;
9970;SDS011;5026;51.494;11.974;2023-06-22T09:30:03;8.80;;;8.00;;
9970;SDS011;5026;51.494;11.974;2023-06-22T09:32:31;8.10;;;7.40;;
9970;SDS011;5026;51.494;11.974;2023-06-22T09:34:58;8.60;;;7.05;;
9970;SDS011;5026;51.494;11.974;2023-06-22T09:37:28;8.95;;;7.78;;
9970;SDS011;5026;51.494;11.974;2023-06-22T09:39:55;10.02;;;8.00;;
9970;SDS011;5026;51.494;11.974;2023-06-22T09:42:23;10.98;;;7.70;;
9970;SDS011;5026;51.494;11.974;2023-06-22T09:44:50;8.73;;;7.82;;
9970;SDS011;5026;51.494;11.974;2023-06-22T09:47:16;8.70;;;7.88;;
9970;SDS011;5026;51.494;11.974;2023-06-22T09:49:43;9.35;;;7.53;;
9970;SDS011;5026;51.494;11.974;2023-06-22T09:52:11;13.32;;;7.22;;
9970;SDS011;5026;51.494;11.974;2023-06-22T09:54:37;12.43;;;7.38;;
9970;SDS011;5026;51.494;11.974;2023-06-22T09:57:04;10.05;;;8.43;;
9970;SDS011;5026;51.494;11.974;2023-06-22T09:59:33;9.60;;;7.28;;
9970;SDS011;5026;51.494;11.974;2023-06-22T10:02:00;8.15;;;7.35;;
9970;SDS011;5026;51.494;11.974;2023-06-22T10:04:27;9.70;;;7.35;;
9970;SDS011;5026;51.494;11.974;2023-06-22T10:06:54;8.48;;;7.65;;
9970;SDS011;5026;51.494;11.974;2023-06-22T10:09:21;9.45;;;7.97;;
9970;SDS011;5026;51.494;11.974;2023-06-22T10:11:48;8.38;;;7.57;;
9970;SDS011;5026;51.494;11.974;2023-06-22T10:14:14;11.07;;;7.60;;
9970;SDS011;5026;51.494;11.974;2023-06-22T10:16:43;7.50;;;6.80;;
9970;SDS011;5026;51.494;11.974;2023-06-22T10:19:10;9.50;;;7.20;;
9970;SDS011;5026;51.494;11.974;2023-06-22T10:21:36;8.77;;;7.13;;
9970;SDS011;5026;51.494;11.974;2023-06-22T10:24:03;8.00;;;6.85;;
9970;SDS011;5026;51.494;11.974;2023-06-22T10:26:32;10.57;;;7.65;;
9970;SDS011;5026;51.494;11.974;2023-06-22T10:28:59;9.45;;;6.90;;
9970;SDS011;5026;51.494;11.974;2023-06-22T10:31:26;8.05;;;7.05;;
9970;SDS011;5026;51.494;11.974;2023-06-22T10:33:55;8.20;;;7.13;;
9970;SDS011;5026;51.494;11.974;2023-06-22T10:36:22;7.68;;;6.88;;
9970;SDS011;5026;51.494;11.974;2023-06-22T10:38:49;9.20;;;6.88;;
9970;SDS011;5026;51.494;11.974;2023-06-22T10:41:17;7.40;;;6.70;;
9970;SDS011;5026;51.494;11.974;2023-06-22T10:43:44;8.55;;;6.80;;
9970;SDS011;5026;51.494;11.974;2023-06-22T10:46:12;8.57;;;6.85;;
9970;SDS011;5026;51.494;11.974;2023-06-22T10:48:38;7.22;;;6.53;;
9970;SDS011;5026;51.494;11.974;2023-06-22T10:51:07;7.05;;;6.32;;
9970;SDS011;5026;51.494;11.974;2023-06-22T10:53:33;6.60;;;6.00;;
9970;SDS011;5026;51.494;11.974;2023-06-22T10:56:00;7.22;;;6.50;;
9970;SDS011;5026;51.494;11.974;2023-06-22T10:58:27;6.97;;;6.10;;
9970;SDS011;5026;51.494;11.974;2023-06-22T11:00:54;9.25;;;6.82;;
9970;SDS011;5026;51.494;11.974;2023-06-22T11:03:21;7.47;;;6.25;;
9970;SDS011;5026;51.494;11.974;2023-06-22T11:05:48;6.68;;;6.00;;
9970;SDS011;5026;51.494;11.974;2023-06-22T11:08:16;6.55;;;5.90;;
9970;SDS011;5026;51.494;11.974;2023-06-22T11:10:43;6.88;;;6.18;;
9970;SDS011;5026;51.494;11.974;2023-06-22T11:13:10;6.82;;;5.95;;
9970;SDS011;5026;51.494;11.974;2023-06-22T11:15:37;7.47;;;5.28;;
9970;SDS011;5026;51.494;11.974;2023-06-22T11:18:05;6.15;;;5.50;;
9970;SDS011;5026;51.494;11.974;2023-06-22T11:20:32;6.93;;;6.22;;
9970;SDS011;5026;51.494;11.974;2023-06-22T11:23:03;6.40;;;5.80;;
9970;SDS011;5026;51.494;11.974;2023-06-22T11:25:31;7.70;;;5.53;;
9970;SDS011;5026;51.494;11.974;2023-06-22T11:28:00;6.40;;;5.80;;
9970;SDS011;5026;51.494;11.974;2023-06-22T11:30:27;7.10;;;5.28;;
9970;SDS011;5026;51.494;11.974;2023-06-22T11:32:55;6.22;;;5.32;;
9970;SDS011;5026;51.494;11.974;2023-06-22T11:35:22;6.90;;;5.85;;
9970;SDS011;5026;51.494;11.974;2023-06-22T11:37:49;9.05;;;5.53;;
9970;SDS011;5026;51.494;11.974;2023-06-22T11:40:16;6.63;;;5.70;;
9970;SDS011;5026;51.494;11.974;2023-06-22T11:42:44;6.20;;;5.40;;
9970;SDS011;5026;51.494;11.974;2023-06-22T11:45:11;7.65;;;5.90;;
9970;SDS011;5026;51.494;11.974;2023-06-22T11:47:38;6.50;;;5.88;;
9970;SDS011;5026;51.494;11.974;2023-06-22T11:50:05;6.97;;;6.38;;
9970;SDS011;5026;51.494;11.974;2023-06-22T11:52:33;6.95;;;6.13;;
9970;SDS011;5026;51.494;11.974;2023-06-22T11:55:00;7.68;;;6.93;;
9970;SDS011;5026;51.494;11.974;2023-06-22T11:57:28;6.80;;;6.15;;
9970;SDS011;5026;51.494;11.974;2023-06-22T11:59:57;10.07;;;6.78;;
9970;SDS011;5026;51.494;11.974;2023-06-22T12:02:24;6.93;;;6.20;;
9970;SDS011;5026;51.494;11.974;2023-06-22T12:04:51;7.43;;;6.68;;
9970;SDS011;5026;51.494;11.974;2023-06-22T12:07:20;7.53;;;6.75;;
9970;SDS011;5026;51.494;11.974;2023-06-22T12:09:47;9.60;;;7.18;;
9970;SDS011;5026;51.494;11.974;2023-06-22T12:12:14;6.65;;;6.05;;
9970;SDS011;5026;51.494;11.974;2023-06-22T12:14:41;7.88;;;6.22;;
9970;SDS011;5026;51.494;11.974;2023-06-22T12:17:09;8.18;;;7.05;;
9970;SDS011;5026;51.494;11.974;2023-06-22T12:19:37;6.93;;;6.22;;
9970;SDS011;5026;51.494;11.974;2023-06-22T12:22:04;7.10;;;6.40;;
9970;SDS011;5026;51.494;11.974;2023-06-22T12:24:31;7.75;;;6.72;;
9970;SDS011;5026;51.494;11.974;2023-06-22T12:26:57;7.70;;;7.00;;
9970;SDS011;5026;51.494;11.974;2023-06-22T12:29:24;7.30;;;6.57;;
9970;SDS011;5026;51.494;11.974;2023-06-22T12:31:51;7.00;;;6.22;;
9970;SDS011;5026;51.494;11.974;2023-06-22T12:34:19;7.47;;;6.35;;
9970;SDS011;5026;51.494;11.974;2023-06-22T12:36:46;8.35;;;6.28;;
9970;SDS011;5026;51.494;11.974;2023-06-22T12:39:13;6.82;;;6.20;;
9970;SDS011;5026;51.494;11.974;2023-06-22T12:41:40;6.78;;;6.00;;
9970;SDS011;5026;51.494;11.974;2023-06-22T12:44:07;9.30;;;6.50;;
9970;SDS011;5026;51.494;11.974;2023-06-22T12:46:34;6.57;;;5.97;;
9970;SDS011;5026;51.494;11.974;2023-06-22T12:49:02;7.15;;;6.35;;
9970;SDS011;5026;51.494;11.974;2023-06-22T12:51:31;8.02;;;6.30;;
9970;SDS011;5026;51.494;11.974;2023-06-22T12:53:59;7.93;;;6.65;;
9970;SDS011;5026;51.494;11.974;2023-06-22T12:56:25;7.43;;;6.18;;
9970;SDS011;5026;51.494;11.974;2023-06-22T12:58:52;7.25;;;6.03;;
9970;SDS011;5026;51.494;11.974;2023-06-22T13:01:19;7.63;;;6.28;;
9970;SDS011;5026;51.494;11.974;2023-06-22T13:03:46;10.00;;;6.22;;
9970;SDS011;5026;51.494;11.974;2023-06-22T13:06:13;8.75;;;6.45;;
9970;SDS011;5026;51.494;11.974;2023-06-22T13:08:41;6.70;;;6.10;;
9970;SDS011;5026;51.494;11.974;2023-06-22T13:11:08;7.05;;;5.82;;
9970;SDS011;5026;51.494;11.974;2023-06-22T13:13:35;9.27;;;7.10;;
9970;SDS011;5026;51.494;11.974;2023-06-22T13:16:02;10.10;;;6.07;;
9970;SDS011;5026;51.494;11.974;2023-06-22T13:18:28;6.72;;;6.07;;
9970;SDS011;5026;51.494;11.974;2023-06-22T13:20:55;6.97;;;6.28;;
9970;SDS011;5026;51.494;11.974;2023-06-22T13:23:23;7.05;;;6.35;;
9970;SDS011;5026;51.494;11.974;2023-06-22T13:25:51;7.25;;;5.88;;
9970;SDS011;5026;51.494;11.974;2023-06-22T13:28:18;9.35;;;6.13;;
9970;SDS011;5026;51.494;11.974;2023-06-22T13:30:46;6.63;;;6.00;;
9970;SDS011;5026;51.494;11.974;2023-06-22T13:33:13;6.47;;;5.88;;
9970;SDS011;5026;51.494;11.974;2023-06-22T13:35:41;7.25;;;6.55;;
9970;SDS011;5026;51.494;11.974;2023-06-22T13:38:08;6.70;;;6.10;;
9970;SDS011;5026;51.494;11.974;2023-06-22T13:50:44;9.00;;;6.70;;
9970;SDS011;5026;51.494;11.974;2023-06-22T13:53:10;7.22;;;5.97;;
9970;SDS011;5026;51.494;11.974;2023-06-22T13:55:37;11.80;;;6.53;;
9970;SDS011;5026;51.494;11.974;2023-06-22T13:58:04;9.57;;;6.25;;
9970;SDS011;5026;51.494;11.974;2023-06-22T14:00:31;8.30;;;5.97;;
9970;SDS011;5026;51.494;11.974;2023-06-22T14:02:58;8.63;;;6.50;;
9970;SDS011;5026;51.494;11.974;2023-06-22T14:05:25;6.78;;;6.18;;
9970;SDS011;5026;51.494;11.974;2023-06-22T14:07:53;10.82;;;6.30;;
9970;SDS011;5026;51.494;11.974;2023-06-22T14:10:20;7.05;;;6.00;;
9970;SDS011;5026;51.494;11.974;2023-06-22T14:12:47;7.65;;;6.10;;
9970;SDS011;5026;51.494;11.974;2023-06-22T14:15:15;8.50;;;6.35;;
9970;SDS011;5026;51.494;11.974;2023-06-22T14:17:41;7.43;;;6.30;;
9970;SDS011;5026;51.494;11.974;2023-06-22T14:20:08;6.97;;;5.93;;
9970;SDS011;5026;51.494;11.974;2023-06-22T14:22:36;6.47;;;5.78;;
9970;SDS011;5026;51.494;11.974;2023-06-22T14:25:06;8.35;;;6.50;;
9970;SDS011;5026;51.494;11.974;2023-06-22T14:27:33;10.20;;;6.47;;
9970;SDS011;5026;51.494;11.974;2023-06-22T14:30:00;6.78;;;6.18;;
9970;SDS011;5026;51.494;11.974;2023-06-22T14:32:27;7.22;;;6.53;;
9970;SDS011;5026;51.494;11.974;2023-06-22T14:34:55;7.88;;;6.50;;
9970;SDS011;5026;51.494;11.974;2023-06-22T14:37:23;8.32;;;6.75;;
9970;SDS011;5026;51.494;11.974;2023-06-22T14:39:50;7.70;;;6.90;;
9970;SDS011;5026;51.494;11.974;2023-06-22T14:42:18;7.53;;;6.60;;
9970;SDS011;5026;51.494;11.974;2023-06-22T14:44:46;7.13;;;6.38;;
9970;SDS011;5026;51.494;11.974;2023-06-22T14:47:13;7.63;;;6.75;;
9970;SDS011;5026;51.494;11.974;2023-06-22T14:49:43;9.65;;;6.28;;
9970;SDS011;5026;51.494;11.974;2023-06-22T14:52:10;8.93;;;7.10;;
9970;SDS011;5026;51.494;11.974;2023-06-22T14:54:39;8.25;;;6.30;;
9970;SDS011;5026;51.494;11.974;2023-06-22T14:57:06;8.38;;;6.72;;
9970;SDS011;5026;51.494;11.974;2023-06-22T14:59:34;8.30;;;6.65;;
9970;SDS011;5026;51.494;11.974;2023-06-22T15:02:01;7.90;;;7.10;;
9970;SDS011;5026;51.494;11.974;2023-06-22T15:04:28;7.20;;;6.32;;
9970;SDS011;5026;51.494;11.974;2023-06-22T15:06:59;7.82;;;6.72;;